Time;durP1;ratioP1;P1;durP2;ratioP2;P2;SDS_P1;SDS_P2;PMS_P1;PMS_P2;Temp;Humidity;BMP_temperature;BMP_pressure;BME280_temperature;BME280_humidity;BME280_pressure;Samples;Min_cycle;Max_cycle;Signal;HPM_P1;HPM_P2
2021/06/02 00:00:18;;;;;;;4.63;3.00;;;13.10;99.90;;;;;;5043997;28;20505;-64
2021/06/02 00:02:53;;;;;;;3.65;2.45;;;13.10;99.90;;;;;;5044134;28;20777;-64
2021/06/02 00:05:20;;;;;;;4.20;2.80;;;13.10;99.90;;;;;;5043954;28;20056;-64
2021/06/02 00:07:47;;;;;;;4.68;3.17;;;13.10;99.90;;;;;;5043661;28;20053;-64
2021/06/02 00:10:15;;;;;;;7.20;3.47;;;13.00;99.90;;;;;;5043572;28;20159;-63
2021/06/02 00:12:41;;;;;;;4.45;3.03;;;13.00;99.90;;;;;;5044039;28;20124;-63
2021/06/02 00:15:19;;;;;;;5.75;3.05;;;13.00;99.90;;;;;;5043290;28;20037;-64
2021/06/02 00:17:45;;;;;;;6.07;3.40;;;12.90;99.90;;;;;;5043189;28;20045;-64
2021/06/02 00:20:11;;;;;;;3.97;3.00;;;12.90;99.90;;;;;;5043700;28;20053;-63
2021/06/02 00:22:38;;;;;;;5.40;2.90;;;12.80;99.90;;;;;;5043593;28;20045;-64
2021/06/02 00:25:05;;;;;;;6.47;3.28;;;12.80;99.90;;;;;;5040936;28;20052;-63
2021/06/02 00:27:32;;;;;;;3.97;2.92;;;12.80;99.90;;;;;;5043408;28;20065;-63
2021/06/02 00:30:03;;;;;;;10.63;4.13;;;12.70;99.90;;;;;;5043272;28;20053;-63
2021/06/02 00:32:33;;;;;;;4.53;3.08;;;12.70;99.90;;;;;;5044353;28;20048;-64
2021/06/02 00:35:00;;;;;;;4.85;3.33;;;12.70;99.90;;;;;;5050445;28;20045;-64
2021/06/02 00:37:28;;;;;;;5.07;3.63;;;12.60;99.90;;;;;;5042540;28;20552;-64
2021/06/02 00:39:56;;;;;;;5.72;3.50;;;12.60;99.90;;;;;;5035777;28;20046;-64
2021/06/02 00:42:28;;;;;;;4.07;3.42;;;12.50;99.90;;;;;;5035195;28;20042;-63
2021/06/02 00:44:55;;;;;;;7.45;3.70;;;12.50;99.90;;;;;;5041686;28;20072;-65
2021/06/02 00:47:23;;;;;;;4.63;3.70;;;12.50;99.90;;;;;;5044132;28;20049;-64
2021/06/02 00:49:49;;;;;;;5.93;3.85;;;12.40;99.90;;;;;;5042625;28;20045;-63
2021/06/02 00:52:15;;;;;;;6.85;3.90;;;12.30;99.90;;;;;;5043477;28;20052;-63
2021/06/02 00:54:41;;;;;;;5.50;3.75;;;12.30;99.90;;;;;;5041983;28;20045;-63
2021/06/02 00:57:14;;;;;;;6.60;4.00;;;12.20;99.90;;;;;;5043350;28;20045;-63
2021/06/02 00:59:44;;;;;;;5.53;4.13;;;12.20;99.90;;;;;;5042626;28;20052;-63
2021/06/02 01:02:21;;;;;;;5.72;3.78;;;12.20;99.90;;;;;;5043177;28;20053;-64
2021/06/02 01:04:52;;;;;;;8.32;3.80;;;12.20;99.90;;;;;;5042323;28;20069;-64
2021/06/02 01:07:20;;;;;;;5.80;4.10;;;12.10;99.90;;;;;;5042788;28;20057;-64
2021/06/02 01:09:48;;;;;;;5.47;3.88;;;12.10;99.90;;;;;;5042302;28;20041;-63
2021/06/02 01:12:23;;;;;;;4.65;4.10;;;12.10;99.90;;;;;;5041438;28;20064;-63
2021/06/02 01:14:51;;;;;;;6.63;4.25;;;12.10;99.90;;;;;;5043146;28;20052;-63
2021/06/02 01:17:20;;;;;;;;;;;12.10;99.90;;;;;;5043251;28;20041;-64
2021/06/02 01:19:46;;;;;;;6.10;3.67;;;12.00;99.90;;;;;;5042808;28;20032;-65
2021/06/02 01:22:12;;;;;;;4.82;4.03;;;12.00;99.90;;;;;;5042308;28;20048;-64
2021/06/02 01:24:39;;;;;;;6.72;4.63;;;11.90;99.90;;;;;;5041850;28;20097;-63
2021/06/02 01:27:08;;;;;;;8.93;4.40;;;11.90;99.90;;;;;;5042249;28;20064;-63
2021/06/02 01:29:37;;;;;;;6.65;4.03;;;11.90;99.90;;;;;;5042111;28;20053;-63
2021/06/02 01:32:37;;;;;;;4.93;3.78;;;11.80;99.90;;;;;;5042172;28;20096;-63
2021/06/02 01:35:17;;;;;;;6.35;4.55;;;11.80;99.90;;;;;;5042604;28;20402;-63
2021/06/02 01:38:04;;;;;;;4.78;3.88;;;11.90;99.90;;;;;;5037221;28;20063;-63
2021/06/02 01:40:45;;;;;;;5.32;4.13;;;11.90;99.90;;;;;;5041485;28;20056;-63
2021/06/02 01:43:58;;;;;;;8.30;5.20;;;11.90;99.90;;;;;;5042425;28;20041;-64
2021/06/02 01:47:01;;;;;;;5.38;4.53;;;11.90;99.90;;;;;;5000155;28;20081;-63
2021/06/02 01:50:00;;;;;;;7.93;4.43;;;11.90;99.90;;;;;;5000466;28;20054;-64
2021/06/02 01:53:02;;;;;;;6.45;4.85;;;11.90;99.90;;;;;;4995085;28;20642;-63
2021/06/02 01:55:47;;;;;;;5.05;4.53;;;12.00;99.90;;;;;;5000031;28;20057;-63
2021/06/02 01:58:27;;;;;;;8.75;5.10;;;12.00;99.90;;;;;;4996452;28;20069;-63
2021/06/02 02:01:23;;;;;;;6.60;4.82;;;12.00;99.90;;;;;;5000729;28;20054;-63
2021/06/02 02:04:21;;;;;;;7.68;5.65;;;12.10;99.90;;;;;;5000751;28;20117;-63
2021/06/02 02:07:22;;;;;;;7.68;5.57;;;12.10;99.90;;;;;;5000633;28;20073;-63
2021/06/02 02:10:07;;;;;;;8.90;5.28;;;12.10;99.90;;;;;;4972994;28;20157;-63
2021/06/02 02:12:35;;;;;;;6.78;5.50;;;12.10;99.90;;;;;;5000449;28;20109;-63
2021/06/02 02:15:25;;;;;;;7.90;5.57;;;12.10;99.90;;;;;;5002079;28;20062;-63
2021/06/02 02:18:18;;;;;;;6.50;5.35;;;12.10;99.90;;;;;;5000731;28;20057;-63
2021/06/02 02:21:42;;;;;;;7.60;5.63;;;12.10;99.90;;;;;;5000636;28;20050;-64
2021/06/02 02:24:22;;;;;;;8.27;6.13;;;12.10;99.90;;;;;;4962719;28;20073;-64
2021/06/02 02:26:55;;;;;;;10.23;6.60;;;12.10;99.90;;;;;;4979766;28;20055;-64
2021/06/02 02:29:35;;;;;;;10.13;6.13;;;12.10;99.90;;;;;;4956054;28;20051;-64
2021/06/02 02:32:21;;;;;;;8.40;6.07;;;12.10;99.90;;;;;;4979530;28;20054;-63
2021/06/02 02:35:20;;;;;;;9.65;5.88;;;12.10;99.90;;;;;;4980786;28;20066;-63
2021/06/02 02:37:59;;;;;;;9.30;6.90;;;12.10;99.90;;;;;;4972891;28;20049;-64
2021/06/02 02:40:27;;;;;;;8.55;7.03;;;12.10;99.90;;;;;;4983604;28;20801;-65
2021/06/02 02:43:06;;;;;;;10.50;7.43;;;12.20;99.90;;;;;;4984422;28;20523;-64
2021/06/02 02:45:57;;;;;;;10.63;7.10;;;12.10;99.90;;;;;;4979947;28;20174;-64
2021/06/02 02:48:28;;;;;;;9.00;6.82;;;12.20;99.90;;;;;;4975065;28;20503;-64
2021/06/02 02:51:31;;;;;;;9.50;7.60;;;12.20;99.90;;;;;;4984159;28;20089;-63
2021/06/02 02:54:06;;;;;;;9.65;7.78;;;12.20;99.90;;;;;;4983403;28;20487;-63
2021/06/02 02:56:57;;;;;;;11.80;8.00;;;12.20;99.90;;;;;;4984377;28;20055;-63
2021/06/02 02:59:29;;;;;;;10.43;8.52;;;12.20;99.90;;;;;;5003013;28;20054;-64
2021/06/02 03:02:08;;;;;;;10.30;8.25;;;12.30;99.90;;;;;;5035999;28;20112;-63
2021/06/02 03:04:42;;;;;;;11.52;9.15;;;12.20;99.90;;;;;;5044763;28;20483;-63
2021/06/02 03:07:10;;;;;;;12.55;8.18;;;12.20;99.90;;;;;;5045398;28;20077;-63
2021/06/02 03:09:53;;;;;;;12.35;8.15;;;12.20;99.90;;;;;;5044418;28;20056;-63
2021/06/02 03:12:44;;;;;;;12.43;8.93;;;12.30;99.90;;;;;;5045264;28;20489;-63
2021/06/02 03:15:27;;;;;;;13.82;9.52;;;12.30;99.90;;;;;;5044166;28;20103;-63
2021/06/02 03:18:11;;;;;;;12.18;9.18;;;12.30;99.90;;;;;;5045356;28;20053;-63
2021/06/02 03:20:57;;;;;;;13.80;10.57;;;12.40;99.90;;;;;;5044087;28;20037;-63
2021/06/02 03:23:44;;;;;;;13.88;10.10;;;12.40;99.90;;;;;;5044678;28;20053;-64
2021/06/02 03:26:14;;;;;;;15.70;9.63;;;12.40;99.90;;;;;;5044864;28;20061;-63
2021/06/02 03:29:02;;;;;;;13.55;9.77;;;12.40;99.90;;;;;;5044074;28;20037;-63
2021/06/02 03:31:47;;;;;;;16.08;10.70;;;12.50;99.90;;;;;;5044471;28;20045;-63
2021/06/02 03:34:31;;;;;;;15.60;11.10;;;12.60;99.90;;;;;;5044424;28;20095;-64
2021/06/02 03:37:06;;;;;;;13.90;10.20;;;12.60;99.90;;;;;;5044318;28;20049;-63
2021/06/02 03:39:50;;;;;;;13.18;10.05;;;12.60;99.90;;;;;;5043884;28;20050;-64
2021/06/02 03:42:43;;;;;;;12.90;10.98;;;12.60;99.90;;;;;;5044723;28;20049;-63
2021/06/02 03:45:31;;;;;;;19.08;10.93;;;12.70;99.90;;;;;;5044165;28;20045;-64
2021/06/02 03:48:31;;;;;;;14.30;11.05;;;12.70;99.90;;;;;;5043888;28;20050;-63
2021/06/02 03:51:13;;;;;;;12.68;9.52;;;12.70;99.90;;;;;;5040720;28;20136;-64
2021/06/02 03:54:18;;;;;;;13.88;10.57;;;12.80;99.90;;;;;;5044020;28;20423;-64
2021/06/02 03:56:44;;;;;;;16.23;10.05;;;12.80;99.90;;;;;;5039623;28;20108;-63
2021/06/02 03:59:24;;;;;;;15.32;10.85;;;12.90;99.90;;;;;;5043894;28;20046;-64
2021/06/02 04:01:59;;;;;;;14.32;10.13;;;13.00;99.90;;;;;;5039572;28;20049;-63
2021/06/02 04:04:28;;;;;;;14.05;10.50;;;13.00;99.90;;;;;;5043632;28;20505;-63
2021/06/02 04:07:04;;;;;;;16.33;11.20;;;13.10;99.90;;;;;;5043327;28;20104;-64
2021/06/02 04:09:54;;;;;;;18.85;10.77;;;13.20;99.90;;;;;;5040486;28;20069;-63
2021/06/02 04:12:50;;;;;;;20.60;11.45;;;13.20;99.90;;;;;;5033466;28;20045;-63
2021/06/02 04:15:17;;;;;;;15.13;10.35;;;13.30;99.90;;;;;;5039997;28;20128;-63
2021/06/02 04:17:48;;;;;;;13.23;10.70;;;13.40;99.90;;;;;;5041724;28;20045;-64
2021/06/02 04:20:16;;;;;;;15.27;10.73;;;13.40;99.90;;;;;;5040116;28;20056;-63
2021/06/02 04:22:47;;;;;;;14.32;11.57;;;13.40;99.90;;;;;;5043016;28;20103;-63
2021/06/02 04:25:16;;;;;;;16.77;11.02;;;13.50;99.90;;;;;;5042114;28;20041;-63
2021/06/02 04:27:46;;;;;;;16.70;11.13;;;13.50;99.90;;;;;;5043075;28;20108;-64
2021/06/02 04:30:15;;;;;;;14.27;11.82;;;13.50;99.90;;;;;;5047186;28;20037;-64
2021/06/02 04:32:43;;;;;;;15.60;10.65;;;13.60;99.90;;;;;;5045184;28;20041;-64
2021/06/02 04:35:10;;;;;;;;;;;13.60;99.90;;;;;;5036932;28;20037;-64
2021/06/02 04:37:36;;;;;;;15.15;9.90;;;13.70;99.90;;;;;;5028687;28;19972;-64
2021/06/02 04:40:07;;;;;;;13.43;9.80;;;13.70;99.90;;;;;;5040424;28;20042;-64
2021/06/02 04:42:37;;;;;;;19.40;9.95;;;13.70;99.90;;;;;;5033081;28;20087;-64
2021/06/02 04:45:16;;;;;;;15.68;9.85;;;13.70;99.90;;;;;;5043777;28;20099;-64
2021/06/02 04:47:44;;;;;;;13.80;9.88;;;13.80;99.90;;;;;;5040648;28;20059;-63
2021/06/02 04:50:17;;;;;;;15.60;10.70;;;13.90;99.90;;;;;;5043498;28;20049;-63
2021/06/02 04:52:51;;;;;;;11.88;9.32;;;13.90;99.90;;;;;;5043623;28;20041;-63
2021/06/02 04:55:29;;;;;;;14.48;10.48;;;13.90;99.90;;;;;;5042914;28;20081;-63
2021/06/02 04:58:33;;;;;;;14.05;10.27;;;13.90;99.90;;;;;;5043101;28;20056;-64
2021/06/02 05:01:26;;;;;;;14.43;9.98;;;13.90;99.90;;;;;;5042294;28;20071;-63
2021/06/02 05:04:10;;;;;;;12.93;9.75;;;14.00;99.90;;;;;;5043869;28;20087;-63
2021/06/02 05:07:04;;;;;;;14.65;9.23;;;14.00;99.90;;;;;;5041946;28;20128;-64
2021/06/02 05:09:52;;;;;;;11.80;9.50;;;14.20;99.90;;;;;;5042747;28;20049;-64
2021/06/02 05:12:36;;;;;;;12.93;9.07;;;14.20;99.90;;;;;;5042022;28;20049;-63
2021/06/02 05:15:26;;;;;;;14.32;9.65;;;14.10;99.90;;;;;;5043122;28;20072;-63
2021/06/02 05:17:58;;;;;;;17.13;9.82;;;14.20;99.90;;;;;;5035157;28;20438;-63
2021/06/02 05:20:38;;;;;;;15.32;8.63;;;14.30;99.90;;;;;;5031208;28;20069;-63
2021/06/02 05:23:23;;;;;;;14.52;9.40;;;14.30;99.90;;;;;;5042937;28;20049;-63
2021/06/02 05:26:25;;;;;;;12.98;9.23;;;14.40;99.90;;;;;;5042936;28;20053;-63
2021/06/02 05:29:07;;;;;;;12.73;8.45;;;14.60;99.90;;;;;;5042941;28;20049;-64
2021/06/02 05:32:10;;;;;;;12.00;8.30;;;14.70;99.90;;;;;;5043300;28;20077;-65
2021/06/02 05:34:47;;;;;;;11.25;8.25;;;14.80;99.90;;;;;;5035327;28;20056;-63
2021/06/02 05:37:32;;;;;;;14.95;8.20;;;14.90;99.90;;;;;;5042974;28;20037;-64
2021/06/02 05:40:35;;;;;;;11.32;8.27;;;15.20;99.90;;;;;;5036626;28;20046;-64
2021/06/02 05:43:23;;;;;;;13.02;7.63;;;15.30;99.90;;;;;;5034357;28;20450;-64
2021/06/02 05:45:55;;;;;;;12.98;8.25;;;15.40;99.90;;;;;;5041375;28;20053;-63
2021/06/02 05:48:36;;;;;;;13.55;7.43;;;15.50;99.90;;;;;;5031896;28;20520;-64
2021/06/02 05:51:21;;;;;;;11.30;8.05;;;15.60;99.90;;;;;;5042719;28;20046;-64
2021/06/02 05:54:15;;;;;;;8.18;5.15;;;15.80;99.90;;;;;;5042518;28;20054;-63
2021/06/02 05:57:00;;;;;;;11.57;6.28;;;15.60;99.90;;;;;;5036802;28;20041;-64
2021/06/02 05:59:31;;;;;;;15.30;7.40;;;15.30;99.90;;;;;;5042542;28;20050;-63
2021/06/02 06:02:22;;;;;;;11.95;7.60;;;15.30;99.90;;;;;;5042300;28;20497;-64
2021/06/02 06:05:17;;;;;;;14.63;7.97;;;15.40;99.90;;;;;;5043348;28;20128;-63
2021/06/02 06:08:01;;;;;;;13.07;7.85;;;15.70;99.90;;;;;;5037652;28;20045;-64
2021/06/02 06:10:50;;;;;;;13.20;8.32;;;16.10;99.90;;;;;;5031038;28;20053;-64
2021/06/02 06:13:36;;;;;;;10.63;7.63;;;16.40;99.90;;;;;;5045940;28;20139;-63
2021/06/02 06:16:26;;;;;;;10.52;7.20;;;16.80;99.90;;;;;;5046570;28;20041;-64
2021/06/02 06:19:35;;;;;;;11.63;7.70;;;16.90;99.90;;;;;;5034997;28;20070;-63
2021/06/02 06:22:34;;;;;;;13.80;7.70;;;17.10;99.90;;;;;;5046216;28;20057;-63
2021/06/02 06:25:12;;;;;;;10.35;8.35;;;16.80;99.90;;;;;;5045710;28;20056;-64
2021/06/02 06:27:49;;;;;;;;;;;17.20;99.90;;;;;;5046559;28;20045;-64
2021/06/02 06:30:20;;;;;;;10.90;8.18;;;17.30;99.90;;;;;;5046218;28;19921;-64
2021/06/02 06:32:50;;;;;;;12.18;7.88;;;17.50;99.90;;;;;;5046163;28;20051;-63
2021/06/02 06:35:17;;;;;;;13.38;7.70;;;17.90;99.90;;;;;;5046154;28;20065;-64
2021/06/02 06:37:46;;;;;;;10.20;7.07;;;17.90;99.90;;;;;;5046197;28;20068;-65
2021/06/02 06:40:19;;;;;;;11.85;8.35;;;18.10;99.90;;;;;;5045601;28;20055;-64
2021/06/02 06:42:53;;;;;;;11.10;6.80;;;18.30;99.90;;;;;;5046009;28;20039;-63
2021/06/02 06:45:24;;;;;;;12.40;7.63;;;18.30;99.90;;;;;;5045665;28;20128;-63
2021/06/02 06:47:51;;;;;;;13.32;8.13;;;18.20;99.90;;;;;;5043543;28;20110;-63
2021/06/02 06:50:18;;;;;;;;;;;18.30;99.90;;;;;;5046776;28;20045;-63
2021/06/02 06:52:49;;;;;;;12.98;8.15;;;17.80;99.90;;;;;;5046063;28;19928;-64
2021/06/02 06:55:15;;;;;;;10.05;7.25;;;17.70;99.90;;;;;;5045594;28;20046;-64
2021/06/02 06:57:44;;;;;;;10.75;7.97;;;18.10;99.90;;;;;;5045650;28;20101;-64
2021/06/02 07:00:11;;;;;;;12.50;7.63;;;18.40;99.90;;;;;;5045483;28;20136;-64
2021/06/02 07:02:39;;;;;;;12.07;8.13;;;18.60;99.90;;;;;;5045842;28;20038;-64
2021/06/02 07:05:06;;;;;;;13.85;7.97;;;18.20;99.90;;;;;;5045626;28;20087;-64
2021/06/02 07:07:35;;;;;;;10.15;7.55;;;18.50;99.90;;;;;;5045734;28;20049;-64
2021/06/02 07:10:04;;;;;;;8.02;5.93;;;18.50;99.90;;;;;;5045017;28;20049;-64
2021/06/02 07:12:32;;;;;;;9.18;5.75;;;18.50;99.90;;;;;;5045714;28;20048;-64
2021/06/02 07:15:01;;;;;;;8.68;5.57;;;18.40;99.90;;;;;;5045378;28;20045;-64
2021/06/02 07:17:27;;;;;;;8.93;6.47;;;17.80;99.90;;;;;;5045859;28;20049;-64
2021/06/02 07:19:58;;;;;;;7.87;5.47;;;17.90;99.90;;;;;;5045400;28;20410;-64
2021/06/02 07:22:25;;;;;;;9.75;6.03;;;18.10;99.90;;;;;;5045313;28;20042;-64
2021/06/02 07:25:00;;;;;;;9.50;6.45;;;17.90;99.90;;;;;;5044355;28;20101;-64
2021/06/02 07:27:28;;;;;;;12.40;6.68;;;17.90;99.90;;;;;;5045478;28;20063;-65
2021/06/02 07:29:54;;;;;;;11.13;6.68;;;18.20;99.90;;;;;;5045356;28;20076;-64
2021/06/02 07:32:20;;;;;;;11.48;6.45;;;18.20;99.90;;;;;;5045492;28;20151;-64
2021/06/02 07:34:46;;;;;;;11.90;6.43;;;18.00;99.90;;;;;;5045052;28;20580;-64
2021/06/02 07:37:17;;;;;;;9.00;6.68;;;18.10;99.90;;;;;;5044929;28;20037;-64
2021/06/02 07:39:43;;;;;;;9.80;6.80;;;18.30;99.90;;;;;;5044482;28;20045;-64
2021/06/02 07:42:09;;;;;;;12.57;5.85;;;18.60;99.90;;;;;;5045093;28;20041;-65
2021/06/02 07:44:35;;;;;;;7.53;4.95;;;18.80;99.90;;;;;;5044757;28;20052;-63
2021/06/02 07:47:00;;;;;;;8.10;5.15;;;18.80;99.90;;;;;;5044838;28;20051;-64
2021/06/02 07:49:26;;;;;;;6.93;5.53;;;18.70;99.90;;;;;;5043978;28;20076;-64
2021/06/02 07:51:53;;;;;;;10.23;5.65;;;19.00;99.90;;;;;;5035057;28;20045;-64
2021/06/02 07:54:20;;;;;;;10.38;4.65;;;19.00;99.90;;;;;;5044882;28;20045;-64
2021/06/02 07:56:46;;;;;;;7.47;4.32;;;19.20;97.90;;;;;;5044933;28;20128;-64
2021/06/02 07:59:12;;;;;;;10.48;4.82;;;19.10;97.60;;;;;;5044433;28;20045;-64
2021/06/02 08:01:38;;;;;;;7.72;4.28;;;19.20;97.80;;;;;;5044628;28;20048;-64
2021/06/02 08:04:04;;;;;;;8.43;5.32;;;18.90;98.50;;;;;;5044085;28;20128;-64
2021/06/02 08:06:30;;;;;;;6.78;3.58;;;18.90;99.70;;;;;;5044715;28;20551;-64
2021/06/02 08:08:55;;;;;;;6.65;4.72;;;19.20;98.00;;;;;;5044125;28;20053;-64
2021/06/02 08:11:21;;;;;;;5.22;3.75;;;19.20;97.80;;;;;;5044171;28;20101;-64
2021/06/02 08:13:47;;;;;;;4.60;3.00;;;18.70;96.40;;;;;;5044211;28;20128;-64
2021/06/02 08:16:13;;;;;;;5.97;3.78;;;18.70;96.30;;;;;;5044218;28;20056;-64
2021/06/02 08:18:39;;;;;;;5.22;3.80;;;18.80;97.00;;;;;;5044577;28;20048;-65
2021/06/02 08:21:05;;;;;;;6.70;4.20;;;18.90;95.90;;;;;;5044633;28;20073;-64
2021/06/02 08:23:31;;;;;;;7.68;3.50;;;18.90;96.80;;;;;;5043636;28;20052;-64
2021/06/02 08:25:57;;;;;;;5.10;3.70;;;18.90;97.50;;;;;;5044100;28;20045;-65
2021/06/02 08:28:23;;;;;;;6.13;4.00;;;19.10;97.70;;;;;;5043741;28;20069;-64
2021/06/02 08:30:50;;;;;;;5.25;4.10;;;19.30;97.40;;;;;;5044558;28;20046;-64
2021/06/02 08:33:16;;;;;;;6.32;4.35;;;19.40;97.80;;;;;;5044366;28;20042;-64
2021/06/02 08:35:42;;;;;;;5.05;3.40;;;19.70;98.10;;;;;;5043150;28;20045;-64
2021/06/02 08:38:09;;;;;;;5.57;4.38;;;20.00;95.20;;;;;;5043932;28;20037;-64
2021/06/02 08:40:36;;;;;;;5.18;3.10;;;20.00;96.20;;;;;;5043257;28;20041;-65
2021/06/02 08:43:02;;;;;;;9.55;4.75;;;19.90;94.60;;;;;;5044175;28;20075;-64
2021/06/02 08:45:27;;;;;;;10.18;4.70;;;19.90;95.90;;;;;;5044290;28;20049;-64
2021/06/02 08:47:54;;;;;;;6.88;4.47;;;20.10;96.30;;;;;;5043699;28;20485;-63
2021/06/02 08:50:21;;;;;;;7.65;4.68;;;20.00;97.10;;;;;;5043455;28;20071;-63
2021/06/02 08:52:48;;;;;;;8.48;4.93;;;20.00;97.90;;;;;;5043501;28;20053;-64
2021/06/02 08:55:20;;;;;;;7.35;4.53;;;20.20;97.30;;;;;;5043263;28;20056;-64
2021/06/02 08:57:48;;;;;;;6.78;4.10;;;20.10;97.20;;;;;;5043879;28;20065;-64
2021/06/02 09:00:17;;;;;;;6.60;4.68;;;19.80;98.10;;;;;;5042602;28;20061;-64
2021/06/02 09:02:53;;;;;;;8.32;3.75;;;20.00;97.60;;;;;;5043677;28;20037;-63
2021/06/02 09:05:19;;;;;;;7.97;4.70;;;19.90;97.60;;;;;;5043684;28;20053;-64
2021/06/02 09:07:49;;;;;;;7.40;4.18;;;19.80;98.00;;;;;;5043428;28;20052;-63
2021/06/02 09:10:15;;;;;;;6.22;3.90;;;20.00;98.30;;;;;;5043330;28;20045;-63
2021/06/02 09:12:42;;;;;;;11.13;4.90;;;20.40;97.70;;;;;;5043271;28;20045;-64
2021/06/02 09:15:10;;;;;;;5.78;4.20;;;20.40;98.90;;;;;;5043384;28;20045;-63
2021/06/02 09:17:49;;;;;;;;;;;20.60;99.50;;;;;;5043753;28;20059;-64
2021/06/02 09:20:35;;;;;;;6.85;4.68;;;20.70;98.30;;;;;;5043009;28;19928;-64
2021/06/02 09:23:02;;;;;;;9.38;4.07;;;20.80;98.10;;;;;;5043599;28;20138;-64
2021/06/02 09:25:28;;;;;;;8.48;3.42;;;21.20;97.30;;;;;;5043372;28;20064;-64
2021/06/02 09:27:57;;;;;;;6.60;3.60;;;20.70;95.30;;;;;;5043472;28;20442;-64
2021/06/02 09:30:27;;;;;;;4.65;3.67;;;20.70;95.40;;;;;;5042825;28;20405;-64
2021/06/02 09:32:57;;;;;;;4.65;3.70;;;20.50;96.60;;;;;;5043347;28;20057;-64
2021/06/02 09:35:41;;;;;;;6.95;4.32;;;20.50;97.40;;;;;;5042822;28;20045;-64
2021/06/02 09:38:23;;;;;;;5.90;3.60;;;20.50;96.30;;;;;;5043583;28;20064;-64
2021/06/02 09:40:54;;;;;;;5.93;3.95;;;20.90;97.10;;;;;;5042008;28;20492;-64
2021/06/02 09:43:33;;;;;;;5.53;3.63;;;20.80;96.70;;;;;;5043569;28;20046;-64
2021/06/02 09:46:09;;;;;;;5.35;3.33;;;21.00;94.60;;;;;;5039950;28;20056;-63
2021/06/02 09:48:41;;;;;;;3.25;2.42;;;21.00;93.20;;;;;;5046425;28;20508;-64
2021/06/02 09:51:28;;;;;;;7.43;2.55;;;20.70;88.40;;;;;;5046714;28;20109;-64
2021/06/02 09:53:55;;;;;;;5.13;3.40;;;20.90;92.00;;;;;;5038499;28;20073;-63
2021/06/02 09:56:34;;;;;;;4.43;2.88;;;20.70;91.70;;;;;;5047097;28;20047;-64
2021/06/02 09:59:00;;;;;;;4.53;3.05;;;20.60;93.60;;;;;;5039275;28;20101;-64
2021/06/02 10:01:25;;;;;;;9.98;3.70;;;20.70;94.20;;;;;;5045380;28;20041;-64
2021/06/02 10:03:52;;;;;;;3.80;3.40;;;20.80;94.80;;;;;;5047075;28;20045;-63
2021/06/02 10:06:18;;;;;;;7.53;3.58;;;20.70;95.10;;;;;;5046449;28;20124;-63
2021/06/02 10:08:52;;;;;;;3.58;2.60;;;20.70;95.40;;;;;;5046297;28;20076;-64
2021/06/02 10:11:20;;;;;;;4.80;3.03;;;20.80;94.20;;;;;;5047137;28;20053;-64
2021/06/02 10:13:52;;;;;;;3.03;2.20;;;21.30;92.40;;;;;;5046974;28;20042;-64
2021/06/02 10:16:40;;;;;;;4.68;2.33;;;21.70;83.50;;;;;;5046763;28;20052;-63
2021/06/02 10:19:06;;;;;;;6.70;2.58;;;21.60;71.80;;;;;;5046909;28;20057;-64
2021/06/02 10:21:50;;;;;;;3.97;2.50;;;21.90;74.70;;;;;;5046162;28;20041;-63
2021/06/02 10:24:17;;;;;;;4.60;3.05;;;22.00;85.40;;;;;;5046297;28;20129;-63
2021/06/02 10:26:43;;;;;;;5.13;2.63;;;22.20;86.90;;;;;;5046702;28;20041;-64
2021/06/02 10:29:08;;;;;;;4.05;2.97;;;22.20;82.00;;;;;;5046093;28;20076;-64
2021/06/02 10:31:35;;;;;;;7.10;3.10;;;22.00;74.90;;;;;;5046513;28;20046;-64
2021/06/02 10:34:01;;;;;;;5.83;2.97;;;22.20;81.20;;;;;;5046255;28;20045;-64
2021/06/02 10:36:27;;;;;;;4.55;2.50;;;21.90;83.50;;;;;;5046073;28;20056;-64
2021/06/02 10:38:57;;;;;;;3.30;2.70;;;21.90;85.50;;;;;;5045995;28;20068;-64
2021/06/02 10:41:35;;;;;;;3.58;3.20;;;21.70;87.00;;;;;;5046451;28;20046;-65
2021/06/02 10:44:09;;;;;;;4.78;3.00;;;22.20;88.70;;;;;;5045808;28;20061;-63
2021/06/02 10:46:40;;;;;;;6.65;3.30;;;22.30;90.30;;;;;;5037919;28;20072;-63
2021/06/02 10:49:06;;;;;;;4.60;2.72;;;22.40;88.10;;;;;;5041626;28;20053;-63
2021/06/02 10:51:32;;;;;;;5.65;3.20;;;22.00;87.50;;;;;;5045877;28;20551;-64
2021/06/02 10:54:04;;;;;;;6.40;2.80;;;22.10;88.80;;;;;;5045710;28;20049;-63
2021/06/02 10:56:30;;;;;;;6.70;3.10;;;22.70;89.40;;;;;;5045845;28;20083;-63
2021/06/02 10:58:56;;;;;;;3.45;2.63;;;22.70;89.00;;;;;;5045391;28;20045;-64
2021/06/02 11:01:22;;;;;;;4.03;2.90;;;23.10;87.80;;;;;;5045743;28;20037;-63
2021/06/02 11:04:11;;;;;;;3.05;2.55;;;22.30;84.60;;;;;;5035627;28;20046;-63
2021/06/02 11:06:42;;;;;;;5.97;2.60;;;22.40;88.00;;;;;;5043687;28;20454;-63
2021/06/02 11:09:11;;;;;;;9.32;3.47;;;22.40;89.20;;;;;;5044128;28;20067;-64
2021/06/02 11:11:42;;;;;;;3.80;2.67;;;22.90;88.80;;;;;;5044553;28;20061;-63
2021/06/02 11:14:14;;;;;;;5.88;2.85;;;22.90;87.30;;;;;;5044381;28;20071;-63
2021/06/02 11:16:46;;;;;;;5.00;3.00;;;23.40;86.80;;;;;;5044361;28;20045;-64
2021/06/02 11:19:12;;;;;;;4.28;2.80;;;23.80;84.80;;;;;;5044395;28;20045;-64
2021/06/02 11:21:53;;;;;;;6.38;2.78;;;24.20;80.90;;;;;;5044110;28;20051;-64
2021/06/02 11:24:31;;;;;;;2.83;2.30;;;24.70;76.20;;;;;;5044429;28;20041;-64
2021/06/02 11:27:16;;;;;;;;;;;24.70;74.30;;;;;;5045210;28;20045;-63
2021/06/02 11:29:51;;;;;;;4.07;3.47;;;24.10;74.90;;;;;;5044253;28;19927;-63
2021/06/02 11:32:28;;;;;;;5.55;3.15;;;24.40;70.00;;;;;;5044052;28;20049;-63
2021/06/02 11:34:59;;;;;;;5.80;2.50;;;24.10;74.90;;;;;;5044110;28;20049;-63
2021/06/02 11:37:26;;;;;;;5.78;2.97;;;24.20;78.50;;;;;;5043851;28;20112;-62
2021/06/02 11:39:55;;;;;;;6.07;3.28;;;24.50;69.00;;;;;;5043998;28;20073;-64
2021/06/02 11:42:28;;;;;;;7.00;3.15;;;24.70;67.30;;;;;;5044045;28;20038;-64
2021/06/02 11:45:05;;;;;;;6.43;3.40;;;25.00;66.50;;;;;;5043717;28;20063;-63
2021/06/02 11:47:31;;;;;;;8.37;3.40;;;25.30;62.40;;;;;;5043855;28;20057;-64
2021/06/02 11:50:17;;;;;;;6.90;3.58;;;25.60;62.50;;;;;;5043777;28;20041;-64
2021/06/02 11:52:44;;;;;;;5.75;3.47;;;25.90;58.50;;;;;;5043770;28;20053;-64
2021/06/02 11:55:13;;;;;;;4.20;2.72;;;26.20;58.90;;;;;;5043479;28;20056;-64
2021/06/02 11:57:39;;;;;;;7.82;2.80;;;25.70;58.90;;;;;;5057442;28;20080;-64
2021/06/02 12:00:05;;;;;;;3.95;3.25;;;25.90;60.70;;;;;;5043795;28;20041;-64
2021/06/02 12:02:33;;;;;;;3.43;2.80;;;25.50;57.70;;;;;;5043689;28;20505;-64
2021/06/02 12:05:20;;;;;;;6.40;2.72;;;26.00;59.20;;;;;;5006029;28;1078412;-64
2021/06/02 12:07:49;;;;;;;5.75;2.83;;;25.50;60.40;;;;;;5044509;28;20075;-63
2021/06/02 12:10:15;;;;;;;4.60;2.95;;;25.40;58.20;;;;;;5043394;28;20057;-64
2021/06/02 12:12:46;;;;;;;6.18;2.72;;;26.20;58.10;;;;;;5044674;28;20072;-63
2021/06/02 12:15:13;;;;;;;5.57;3.28;;;26.60;55.00;;;;;;5038717;28;20038;-63
2021/06/02 12:17:41;;;;;;;4.07;2.63;;;26.00;55.20;;;;;;5038122;28;20045;-64
2021/06/02 12:20:21;;;;;;;3.58;2.95;;;25.70;54.80;;;;;;5044162;28;20051;-64
2021/06/02 12:22:48;;;;;;;3.63;2.53;;;26.70;52.10;;;;;;5044224;28;20088;-64
2021/06/02 12:25:16;;;;;;;4.93;2.92;;;26.30;53.40;;;;;;5044365;28;20047;-64
2021/06/02 12:27:54;;;;;;;3.85;2.85;;;27.30;53.80;;;;;;5044302;28;20037;-63
2021/06/02 12:30:26;;;;;;;15.52;3.17;;;26.40;52.20;;;;;;5059336;28;20041;-63
2021/06/02 12:32:56;;;;;;;4.32;3.05;;;26.40;53.40;;;;;;5044035;28;20409;-64
2021/06/02 12:35:30;;;;;;;5.30;2.65;;;26.40;50.30;;;;;;5043775;28;20038;-63
2021/06/02 12:38:11;;;;;;;4.68;3.10;;;26.30;52.30;;;;;;5044146;28;20069;-64
2021/06/02 12:40:40;;;;;;;11.35;2.83;;;25.90;51.50;;;;;;5043676;28;20099;-63
2021/06/02 12:43:13;;;;;;;5.53;2.83;;;26.20;53.60;;;;;;5044251;28;20041;-63
2021/06/02 12:45:39;;;;;;;6.38;2.63;;;26.10;54.90;;;;;;5043314;28;20041;-63
2021/06/02 12:48:07;;;;;;;4.85;2.30;;;26.40;56.10;;;;;;5043454;28;20049;-63
2021/06/02 12:50:43;;;;;;;4.22;2.95;;;25.90;54.80;;;;;;5043686;28;20041;-63
2021/06/02 12:53:10;;;;;;;3.95;2.70;;;25.60;54.30;;;;;;5043957;28;20124;-62
2021/06/02 12:55:39;;;;;;;4.75;3.28;;;26.60;53.50;;;;;;5043598;28;20049;-62
2021/06/02 12:58:10;;;;;;;5.65;2.70;;;26.40;52.00;;;;;;5043547;28;20050;-63
2021/06/02 13:00:39;;;;;;;3.80;2.88;;;25.70;51.50;;;;;;5043464;28;20056;-63
2021/06/02 13:03:05;;;;;;;5.00;2.80;;;26.00;52.30;;;;;;5036977;28;20041;-64
2021/06/02 13:05:31;;;;;;;3.50;3.03;;;26.50;53.30;;;;;;5043413;28;20061;-64
2021/06/02 13:08:05;;;;;;;4.78;3.00;;;26.50;50.30;;;;;;5044164;28;20045;-64
2021/06/02 13:10:33;;;;;;;6.10;3.00;;;26.60;52.20;;;;;;5043248;28;20067;-63
2021/06/02 13:13:01;;;;;;;6.80;3.50;;;27.30;49.90;;;;;;5043451;28;20465;-64
2021/06/02 13:15:28;;;;;;;5.63;3.40;;;26.80;49.40;;;;;;5043356;28;20056;-63
2021/06/02 13:17:54;;;;;;;3.72;2.97;;;26.60;48.20;;;;;;5043419;28;20242;-64
2021/06/02 13:20:38;;;;;;;5.70;3.20;;;27.00;47.90;;;;;;5043684;28;20048;-63